»·PEaware :: UAL1240 MMSD-KSFO

UAL1240 :: MMSD-KSFO

FLIGHT INFORMATION

Flight Status: Arrived
Operator:
United Airlines
More flights by this operator :: More flights under this callsign
Pilot: Jac C. (16067)
Aircraft: BOEING 737-900
(B739)
More flights by this aircraft type
Origin: MMSD Los Cabos Intl
Mexico
Destination: KSFO San Francisco Intl
United States
More flights between these airports :: More routes between these airports
Route: ENS J1 TIJ IKAYE RIZIN STOKD SERFR SERFR3
File this flight plan on PilotEdge
Remarks: PBN / A1B1C1D1S1S2 DOF / 180902 REG / N806SB EET / KZLA0143 KZOA0222 OPR / UAL PER / C RMK / TCAS SIMBRIEF
Altitude:
(Current/Filed)
36,000ft
Speed:
(Current/Filed)
464kts
Departed: 01-Sep-18 06:37 PM
Arrived: 01-Sep-18 08:15 PM
Distance/Time
Traveled:
1085nm/1:37
Distance/Time
To Go:
Arrived

Flight Plot

Page will automatically refresh every two minutes.

Flight plan parsing failed; only flown route is shown


Map Options




Map Legend


Flown Route
Filed Route
Departure Airport
Arrival Airport
Navaid (VOR, NDB)
Fix

Horizontal Profiles

Position Reports

Time Latitude Longitude Heading Altitude Ground
Speed
01-Sep-18 18:37 30.254324 -115.319281 325 35690ft 394kts
01-Sep-18 18:38 30.343658 -115.392430 325 35688ft 394kts
01-Sep-18 18:39 30.432745 -115.465534 325 35687ft 394kts
01-Sep-18 18:40 30.522124 -115.539035 325 35686ft 394kts
01-Sep-18 18:41 30.611292 -115.612528 325 35685ft 394kts
01-Sep-18 18:42 30.700517 -115.686294 325 35687ft 394kts
01-Sep-18 18:43 30.789682 -115.760294 325 35686ft 394kts
01-Sep-18 18:44 30.878562 -115.834215 325 35684ft 394kts
01-Sep-18 18:45 30.966718 -115.907561 324 35681ft 385kts
01-Sep-18 18:46 31.052960 -115.979549 323 35725ft 379kts
01-Sep-18 18:47 31.134523 -116.047816 323 35800ft 380kts
01-Sep-18 18:48 31.217037 -116.117015 323 35863ft 379kts
01-Sep-18 18:49 31.302493 -116.188827 323 35909ft 379kts
01-Sep-18 18:50 31.387640 -116.260533 323 35907ft 379kts
01-Sep-18 18:51 31.472982 -116.332562 323 35905ft 379kts
01-Sep-18 18:52 31.558075 -116.404547 323 35904ft 379kts
01-Sep-18 18:53 31.643111 -116.476670 323 35902ft 379kts
01-Sep-18 18:54 31.728532 -116.549337 323 35899ft 379kts
01-Sep-18 18:55 31.815954 -116.616849 335 35922ft 381kts
01-Sep-18 18:56 31.914568 -116.662513 335 35907ft 382kts
01-Sep-18 18:57 32.013167 -116.708025 335 35904ft 382kts
01-Sep-18 18:58 32.111680 -116.753610 335 35911ft 382kts
01-Sep-18 18:59 32.199167 -116.794173 335 35915ft 382kts
01-Sep-18 19:00 32.297686 -116.839960 335 35912ft 382kts
01-Sep-18 19:01 32.394806 -116.885201 335 35912ft 382kts
01-Sep-18 19:02 32.487050 -116.928272 335 35906ft 384kts
01-Sep-18 19:03 32.572193 -116.994642 314 35891ft 383kts
01-Sep-18 19:04 32.644550 -117.084361 314 35886ft 385kts
01-Sep-18 19:05 32.711669 -117.168141 314 35883ft 386kts
01-Sep-18 19:06 32.785194 -117.260233 314 35875ft 386kts
01-Sep-18 19:07 32.858874 -117.352696 314 35865ft 386kts
01-Sep-18 19:08 32.931071 -117.443491 314 35864ft 386kts
01-Sep-18 19:09 33.004243 -117.535713 313 35864ft 381kts
01-Sep-18 19:10 33.075972 -117.626289 313 35866ft 372kts
01-Sep-18 19:11 33.135673 -117.701960 312 35887ft 366kts
01-Sep-18 19:12 33.201211 -117.785390 312 35888ft 367kts
01-Sep-18 19:13 33.270819 -117.874174 312 35889ft 367kts
01-Sep-18 19:14 33.340449 -117.963179 312 35892ft 367kts
01-Sep-18 19:15 33.409826 -118.052047 312 35882ft 367kts
01-Sep-18 19:16 33.479339 -118.141283 312 35876ft 367kts
01-Sep-18 19:17 33.548415 -118.230146 312 35872ft 367kts
01-Sep-18 19:18 33.617879 -118.319704 312 35857ft 367kts
01-Sep-18 19:19 33.686517 -118.408389 312 35863ft 367kts
01-Sep-18 19:20 33.755806 -118.498114 312 35855ft 367kts
01-Sep-18 19:21 33.825009 -118.587928 312 35854ft 367kts
01-Sep-18 19:22 33.892484 -118.675757 312 35871ft 367kts
01-Sep-18 19:23 33.960954 -118.765394 312 35868ft 367kts
01-Sep-18 19:24 34.029975 -118.855942 311 35868ft 369kts
01-Sep-18 19:25 34.099513 -118.947362 311 35864ft 374kts
01-Sep-18 19:26 34.166900 -119.036155 311 35870ft 379kts
01-Sep-18 19:27 34.236940 -119.128656 311 35867ft 379kts
01-Sep-18 19:28 34.307094 -119.221530 311 35868ft 379kts
01-Sep-18 19:29 34.377406 -119.314834 311 35868ft 379kts
01-Sep-18 19:30 34.448126 -119.408906 311 35859ft 379kts
01-Sep-18 19:31 34.518932 -119.503324 311 35849ft 379kts
01-Sep-18 19:32 34.589619 -119.597822 311 35845ft 379kts
01-Sep-18 19:33 34.659440 -119.691497 310 35854ft 379kts
01-Sep-18 19:34 34.730117 -119.786795 310 35848ft 382kts
01-Sep-18 19:35 34.800732 -119.882225 310 35894ft 381kts
01-Sep-18 19:36 34.871437 -119.978008 310 35912ft 381kts
01-Sep-18 19:37 34.941638 -120.073313 310 35911ft 373kts
01-Sep-18 19:38 35.010069 -120.166427 310 35909ft 366kts
01-Sep-18 19:39 35.077304 -120.258125 309 35909ft 362kts
01-Sep-18 19:40 35.142721 -120.347606 309 35916ft 362kts
01-Sep-18 19:41 35.207637 -120.436607 309 35916ft 362kts
01-Sep-18 19:42 35.274098 -120.527938 309 35908ft 362kts
01-Sep-18 19:43 35.340593 -120.619630 309 35909ft 362kts
01-Sep-18 19:44 35.405565 -120.709765 309 35909ft 362kts
01-Sep-18 19:45 35.472135 -120.802456 309 35886ft 362kts
01-Sep-18 19:46 35.550017 -120.881466 319 35866ft 365kts
01-Sep-18 19:47 35.631185 -120.956538 318 35860ft 366kts
01-Sep-18 19:48 35.712606 -121.032157 318 35860ft 370kts
01-Sep-18 19:49 35.794661 -121.108600 318 35858ft 373kts
01-Sep-18 19:50 35.877313 -121.185828 318 35854ft 375kts
01-Sep-18 19:51 35.958926 -121.262261 318 35866ft 369kts
01-Sep-18 19:52 36.040580 -121.338969 318 35743ft 368kts
01-Sep-18 19:53 36.120968 -121.407684 323 33180ft 369kts
01-Sep-18 19:54 36.195860 -121.465667 325 30748ft 380kts
01-Sep-18 19:55 36.280765 -121.531641 325 28659ft 365kts
01-Sep-18 19:56 36.365626 -121.597931 326 26491ft 357kts
01-Sep-18 19:57 36.446738 -121.661524 326 24449ft 351kts
01-Sep-18 19:58 36.528062 -121.725667 327 22382ft 344kts
01-Sep-18 19:59 36.607762 -121.788708 327 20335ft 338kts
01-Sep-18 20:00 36.686285 -121.850953 328 18355ft 334kts
01-Sep-18 20:01 36.767040 -121.903967 346 16511ft 332kts
01-Sep-18 20:02 36.855272 -121.927910 347 14620ft 319kts
01-Sep-18 20:04 36.942124 -121.951651 347 12773ft 321kts
01-Sep-18 20:05 37.025895 -121.982615 344 11445ft 304kts
01-Sep-18 20:06 37.101166 -122.011986 344 10542ft 275kts
01-Sep-18 20:07 37.170768 -122.039133 344 9633ft 279kts
01-Sep-18 20:08 37.244291 -122.067893 344 8483ft 277kts
01-Sep-18 20:09 37.316476 -122.096242 344 7183ft 263kts
01-Sep-18 20:10 37.385307 -122.123143 345 5879ft 252kts
01-Sep-18 20:11 37.453373 -122.146476 345 4564ft 240kts
01-Sep-18 20:12 37.512631 -122.166752 344 3505ft 216kts
01-Sep-18 20:13 37.552739 -122.218203 299 2478ft 210kts
01-Sep-18 20:14 37.577265 -122.276482 298 1493ft 160kts
01-Sep-18 20:15 37.595396 -122.319571 297 722ft 132kts
01-Sep-18 20:16 37.612432 -122.360125 297 64ft 130kts
01-Sep-18 20:17 37.619792 -122.378863 250 17ft 10kts
01-Sep-18 20:18 37.621585 -122.384861 299 17ft 24kts
01-Sep-18 20:19 37.620469 -122.385356 206 17ft 12kts
01-Sep-18 20:20 37.618954 -122.385955 172 17ft 1kts

Navigation Log

Ident Type
Flight plan parsing failed, navigation log unavailable